sensor_id;sensor_type;location;lat;lon;timestamp;P1;durP1;ratioP1;P2;durP2;ratioP2
23222;SDS011;11780;13.904;100.620;2022-11-15T00:02:15;11.93;;;6.45;;
23222;SDS011;11780;13.904;100.620;2022-11-15T00:05:04;10.10;;;6.45;;
23222;SDS011;11780;13.904;100.620;2022-11-15T00:07:53;9.75;;;6.70;;
23222;SDS011;11780;13.904;100.620;2022-11-15T00:10:42;9.65;;;6.47;;
23222;SDS011;11780;13.904;100.620;2022-11-15T00:13:31;9.32;;;6.20;;
23222;SDS011;11780;13.904;100.620;2022-11-15T00:16:20;7.45;;;5.75;;
23222;SDS011;11780;13.904;100.620;2022-11-15T00:19:09;11.95;;;6.00;;
23222;SDS011;11780;13.904;100.620;2022-11-15T00:21:58;9.85;;;6.07;;
23222;SDS011;11780;13.904;100.620;2022-11-15T00:24:46;10.38;;;6.50;;
23222;SDS011;11780;13.904;100.620;2022-11-15T00:27:35;9.82;;;5.93;;
23222;SDS011;11780;13.904;100.620;2022-11-15T00:30:24;9.85;;;6.82;;
23222;SDS011;11780;13.904;100.620;2022-11-15T00:33:13;8.10;;;5.68;;
23222;SDS011;11780;13.904;100.620;2022-11-15T00:36:06;11.05;;;6.60;;
23222;SDS011;11780;13.904;100.620;2022-11-15T00:38:59;8.60;;;6.10;;
23222;SDS011;11780;13.904;100.620;2022-11-15T00:41:48;12.45;;;6.18;;
23222;SDS011;11780;13.904;100.620;2022-11-15T00:44:37;13.35;;;6.38;;
23222;SDS011;11780;13.904;100.620;2022-11-15T00:47:26;11.98;;;6.38;;
23222;SDS011;11780;13.904;100.620;2022-11-15T00:50:16;9.70;;;6.35;;
23222;SDS011;11780;13.904;100.620;2022-11-15T00:53:04;12.73;;;6.80;;
23222;SDS011;11780;13.904;100.620;2022-11-15T00:55:52;13.45;;;7.40;;
23222;SDS011;11780;13.904;100.620;2022-11-15T00:58:43;11.98;;;7.43;;
23222;SDS011;11780;13.904;100.620;2022-11-15T01:01:32;9.10;;;6.28;;
23222;SDS011;11780;13.904;100.620;2022-11-15T01:04:21;10.95;;;6.88;;
23222;SDS011;11780;13.904;100.620;2022-11-15T01:07:10;9.60;;;6.65;;
23222;SDS011;11780;13.904;100.620;2022-11-15T01:09:59;10.43;;;6.80;;
23222;SDS011;11780;13.904;100.620;2022-11-15T01:12:49;12.50;;;6.90;;
23222;SDS011;11780;13.904;100.620;2022-11-15T01:15:41;10.43;;;6.80;;
23222;SDS011;11780;13.904;100.620;2022-11-15T01:18:30;9.00;;;7.13;;
23222;SDS011;11780;13.904;100.620;2022-11-15T01:21:19;9.32;;;6.13;;
23222;SDS011;11780;13.904;100.620;2022-11-15T01:24:10;8.25;;;5.70;;
23222;SDS011;11780;13.904;100.620;2022-11-15T01:27:00;9.20;;;6.10;;
23222;SDS011;11780;13.904;100.620;2022-11-15T01:29:49;10.15;;;5.60;;
23222;SDS011;11780;13.904;100.620;2022-11-15T01:32:38;9.65;;;5.82;;
23222;SDS011;11780;13.904;100.620;2022-11-15T01:35:27;11.55;;;6.10;;
23222;SDS011;11780;13.904;100.620;2022-11-15T01:38:15;10.93;;;5.82;;
23222;SDS011;11780;13.904;100.620;2022-11-15T01:41:04;8.13;;;5.75;;
23222;SDS011;11780;13.904;100.620;2022-11-15T01:43:54;8.77;;;5.78;;
23222;SDS011;11780;13.904;100.620;2022-11-15T01:46:46;9.10;;;5.63;;
23222;SDS011;11780;13.904;100.620;2022-11-15T01:49:35;9.60;;;5.18;;
23222;SDS011;11780;13.904;100.620;2022-11-15T01:52:28;6.68;;;5.25;;
23222;SDS011;11780;13.904;100.620;2022-11-15T01:55:21;9.20;;;5.38;;
23222;SDS011;11780;13.904;100.620;2022-11-15T01:58:12;7.70;;;5.45;;
23222;SDS011;11780;13.904;100.620;2022-11-15T02:01:01;9.98;;;5.72;;
23222;SDS011;11780;13.904;100.620;2022-11-15T02:03:57;8.23;;;5.25;;
23222;SDS011;11780;13.904;100.620;2022-11-15T02:06:53;8.93;;;5.43;;
23222;SDS011;11780;13.904;100.620;2022-11-15T02:09:43;10.13;;;5.30;;
23222;SDS011;11780;13.904;100.620;2022-11-15T02:12:33;10.43;;;5.90;;
23222;SDS011;11780;13.904;100.620;2022-11-15T02:15:24;7.82;;;5.43;;
23222;SDS011;11780;13.904;100.620;2022-11-15T02:18:34;6.63;;;5.45;;
23222;SDS011;11780;13.904;100.620;2022-11-15T02:21:41;10.20;;;5.68;;
23222;SDS011;11780;13.904;100.620;2022-11-15T02:28:10;8.18;;;5.32;;
23222;SDS011;11780;13.904;100.620;2022-11-15T02:31:41;8.02;;;5.00;;
23222;SDS011;11780;13.904;100.620;2022-11-15T02:34:54;8.60;;;5.20;;
23222;SDS011;11780;13.904;100.620;2022-11-15T02:38:17;6.13;;;4.78;;
23222;SDS011;11780;13.904;100.620;2022-11-15T02:41:31;7.15;;;5.10;;
23222;SDS011;11780;13.904;100.620;2022-11-15T02:44:37;7.95;;;4.93;;
23222;SDS011;11780;13.904;100.620;2022-11-15T02:47:32;8.52;;;5.30;;
23222;SDS011;11780;13.904;100.620;2022-11-15T02:50:29;6.63;;;4.88;;
23222;SDS011;11780;13.904;100.620;2022-11-15T02:53:23;7.67;;;4.80;;
23222;SDS011;11780;13.904;100.620;2022-11-15T02:56:13;9.18;;;5.03;;
23222;SDS011;11780;13.904;100.620;2022-11-15T03:11:21;9.52;;;4.72;;
23222;SDS011;11780;13.904;100.620;2022-11-15T03:17:23;8.10;;;4.90;;
23222;SDS011;11780;13.904;100.620;2022-11-15T03:20:16;6.32;;;4.75;;
23222;SDS011;11780;13.904;100.620;2022-11-15T03:23:07;5.18;;;4.65;;
23222;SDS011;11780;13.904;100.620;2022-11-15T03:25:58;8.25;;;4.40;;
23222;SDS011;11780;13.904;100.620;2022-11-15T03:31:38;6.85;;;4.70;;
23222;SDS011;11780;13.904;100.620;2022-11-15T03:40:44;8.55;;;4.80;;
23222;SDS011;11780;13.904;100.620;2022-11-15T03:46:47;5.22;;;4.28;;
23222;SDS011;11780;13.904;100.620;2022-11-15T03:49:53;6.22;;;4.75;;
23222;SDS011;11780;13.904;100.620;2022-11-15T03:52:48;10.00;;;4.90;;
23222;SDS011;11780;13.904;100.620;2022-11-15T03:55:38;6.32;;;4.60;;
23222;SDS011;11780;13.904;100.620;2022-11-15T03:58:27;6.47;;;5.10;;
23222;SDS011;11780;13.904;100.620;2022-11-15T04:01:15;6.97;;;4.80;;
23222;SDS011;11780;13.904;100.620;2022-11-15T04:04:04;6.18;;;4.57;;
23222;SDS011;11780;13.904;100.620;2022-11-15T04:06:52;8.80;;;5.53;;
23222;SDS011;11780;13.904;100.620;2022-11-15T04:09:41;6.00;;;5.00;;
23222;SDS011;11780;13.904;100.620;2022-11-15T04:12:48;6.45;;;5.20;;
23222;SDS011;11780;13.904;100.620;2022-11-15T04:15:36;6.07;;;4.93;;
23222;SDS011;11780;13.904;100.620;2022-11-15T04:18:25;5.88;;;5.07;;
23222;SDS011;11780;13.904;100.620;2022-11-15T04:21:13;7.82;;;5.20;;
23222;SDS011;11780;13.904;100.620;2022-11-15T04:24:20;6.75;;;5.03;;
23222;SDS011;11780;13.904;100.620;2022-11-15T04:27:08;9.35;;;5.30;;
23222;SDS011;11780;13.904;100.620;2022-11-15T04:30:00;8.13;;;4.72;;
23222;SDS011;11780;13.904;100.620;2022-11-15T04:32:48;8.95;;;5.60;;
23222;SDS011;11780;13.904;100.620;2022-11-15T04:35:37;7.70;;;5.32;;
23222;SDS011;11780;13.904;100.620;2022-11-15T04:38:26;5.40;;;4.90;;
23222;SDS011;11780;13.904;100.620;2022-11-15T04:41:15;5.90;;;4.72;;
23222;SDS011;11780;13.904;100.620;2022-11-15T04:44:03;7.03;;;5.53;;
23222;SDS011;11780;13.904;100.620;2022-11-15T04:46:52;8.23;;;5.50;;
23222;SDS011;11780;13.904;100.620;2022-11-15T04:49:41;5.95;;;5.32;;
23222;SDS011;11780;13.904;100.620;2022-11-15T04:52:31;6.85;;;5.28;;
23222;SDS011;11780;13.904;100.620;2022-11-15T04:55:20;7.88;;;5.28;;
23222;SDS011;11780;13.904;100.620;2022-11-15T04:58:08;7.38;;;6.18;;
23222;SDS011;11780;13.904;100.620;2022-11-15T05:00:57;6.60;;;5.70;;
23222;SDS011;11780;13.904;100.620;2022-11-15T05:03:46;9.43;;;6.45;;
23222;SDS011;11780;13.904;100.620;2022-11-15T05:06:53;6.97;;;5.97;;
23222;SDS011;11780;13.904;100.620;2022-11-15T05:09:42;7.40;;;5.25;;
23222;SDS011;11780;13.904;100.620;2022-11-15T05:12:31;8.93;;;5.68;;
23222;SDS011;11780;13.904;100.620;2022-11-15T05:15:19;7.20;;;5.78;;
23222;SDS011;11780;13.904;100.620;2022-11-15T05:18:08;7.82;;;5.90;;
23222;SDS011;11780;13.904;100.620;2022-11-15T05:21:02;10.45;;;6.18;;
23222;SDS011;11780;13.904;100.620;2022-11-15T05:23:51;10.48;;;6.03;;
23222;SDS011;11780;13.904;100.620;2022-11-15T05:26:41;7.18;;;5.68;;
23222;SDS011;11780;13.904;100.620;2022-11-15T05:29:30;7.80;;;5.80;;
23222;SDS011;11780;13.904;100.620;2022-11-15T05:32:18;6.15;;;5.65;;
23222;SDS011;11780;13.904;100.620;2022-11-15T05:35:08;9.32;;;5.90;;
23222;SDS011;11780;13.904;100.620;2022-11-15T05:38:04;7.18;;;5.38;;
23222;SDS011;11780;13.904;100.620;2022-11-15T05:40:53;9.50;;;5.40;;
23222;SDS011;11780;13.904;100.620;2022-11-15T05:43:42;6.60;;;5.53;;
23222;SDS011;11780;13.904;100.620;2022-11-15T05:46:31;8.18;;;6.03;;
23222;SDS011;11780;13.904;100.620;2022-11-15T05:49:23;7.60;;;5.20;;
23222;SDS011;11780;13.904;100.620;2022-11-15T05:52:16;5.63;;;5.07;;
23222;SDS011;11780;13.904;100.620;2022-11-15T05:55:08;7.25;;;5.65;;
23222;SDS011;11780;13.904;100.620;2022-11-15T05:57:57;7.18;;;5.22;;
23222;SDS011;11780;13.904;100.620;2022-11-15T06:00:46;7.20;;;5.20;;
23222;SDS011;11780;13.904;100.620;2022-11-15T06:03:35;6.85;;;4.60;;
23222;SDS011;11780;13.904;100.620;2022-11-15T06:06:24;5.53;;;4.93;;
23222;SDS011;11780;13.904;100.620;2022-11-15T06:09:12;6.28;;;5.40;;
23222;SDS011;11780;13.904;100.620;2022-11-15T06:12:01;7.15;;;4.85;;
23222;SDS011;11780;13.904;100.620;2022-11-15T06:14:49;5.60;;;5.10;;
23222;SDS011;11780;13.904;100.620;2022-11-15T06:17:38;6.43;;;5.32;;
23222;SDS011;11780;13.904;100.620;2022-11-15T06:20:27;7.22;;;4.70;;
23222;SDS011;11780;13.904;100.620;2022-11-15T06:23:16;5.78;;;4.00;;
23222;SDS011;11780;13.904;100.620;2022-11-15T06:26:04;6.15;;;4.45;;
23222;SDS011;11780;13.904;100.620;2022-11-15T06:28:53;4.30;;;3.90;;
23222;SDS011;11780;13.904;100.620;2022-11-15T06:31:42;6.50;;;4.88;;
23222;SDS011;11780;13.904;100.620;2022-11-15T06:34:30;5.70;;;4.55;;
23222;SDS011;11780;13.904;100.620;2022-11-15T06:37:19;8.80;;;4.72;;
23222;SDS011;11780;13.904;100.620;2022-11-15T06:40:08;9.20;;;4.82;;
23222;SDS011;11780;13.904;100.620;2022-11-15T06:42:58;5.60;;;4.45;;
23222;SDS011;11780;13.904;100.620;2022-11-15T06:45:47;6.38;;;4.63;;
23222;SDS011;11780;13.904;100.620;2022-11-15T06:48:35;7.40;;;4.53;;
23222;SDS011;11780;13.904;100.620;2022-11-15T06:51:24;5.22;;;4.68;;
23222;SDS011;11780;13.904;100.620;2022-11-15T06:54:12;7.50;;;4.03;;
23222;SDS011;11780;13.904;100.620;2022-11-15T06:57:01;5.93;;;4.55;;
23222;SDS011;11780;13.904;100.620;2022-11-15T06:59:51;4.95;;;4.40;;
23222;SDS011;11780;13.904;100.620;2022-11-15T07:02:39;5.40;;;4.05;;
23222;SDS011;11780;13.904;100.620;2022-11-15T07:05:28;4.57;;;4.03;;
23222;SDS011;11780;13.904;100.620;2022-11-15T07:08:16;5.20;;;4.20;;
23222;SDS011;11780;13.904;100.620;2022-11-15T07:11:06;6.35;;;4.22;;
23222;SDS011;11780;13.904;100.620;2022-11-15T07:13:56;4.80;;;4.10;;
23222;SDS011;11780;13.904;100.620;2022-11-15T07:16:44;8.20;;;4.28;;
23222;SDS011;11780;13.904;100.620;2022-11-15T07:19:33;4.40;;;3.78;;
23222;SDS011;11780;13.904;100.620;2022-11-15T07:22:21;6.22;;;3.92;;
23222;SDS011;11780;13.904;100.620;2022-11-15T07:25:10;4.50;;;4.10;;
23222;SDS011;11780;13.904;100.620;2022-11-15T07:27:59;4.78;;;4.25;;
23222;SDS011;11780;13.904;100.620;2022-11-15T07:30:49;6.07;;;3.90;;
23222;SDS011;11780;13.904;100.620;2022-11-15T07:33:38;8.07;;;4.55;;
23222;SDS011;11780;13.904;100.620;2022-11-15T07:36:26;4.53;;;3.85;;
23222;SDS011;11780;13.904;100.620;2022-11-15T07:39:15;6.35;;;3.92;;
23222;SDS011;11780;13.904;100.620;2022-11-15T07:42:04;6.28;;;4.03;;
23222;SDS011;11780;13.904;100.620;2022-11-15T07:45:11;4.63;;;3.80;;
23222;SDS011;11780;13.904;100.620;2022-11-15T07:47:59;7.35;;;4.38;;
23222;SDS011;11780;13.904;100.620;2022-11-15T07:50:48;5.82;;;4.25;;
23222;SDS011;11780;13.904;100.620;2022-11-15T07:53:37;6.57;;;4.72;;
23222;SDS011;11780;13.904;100.620;2022-11-15T07:56:25;5.65;;;4.32;;
23222;SDS011;11780;13.904;100.620;2022-11-15T07:59:13;4.45;;;3.92;;
23222;SDS011;11780;13.904;100.620;2022-11-15T08:02:02;6.22;;;4.03;;
23222;SDS011;11780;13.904;100.620;2022-11-15T08:04:51;6.10;;;4.10;;
23222;SDS011;11780;13.904;100.620;2022-11-15T08:07:40;5.03;;;4.18;;
23222;SDS011;11780;13.904;100.620;2022-11-15T08:10:29;4.57;;;3.90;;
23222;SDS011;11780;13.904;100.620;2022-11-15T08:13:24;5.38;;;4.28;;
23222;SDS011;11780;13.904;100.620;2022-11-15T08:16:13;6.47;;;4.05;;
23222;SDS011;11780;13.904;100.620;2022-11-15T08:19:02;5.50;;;4.07;;
23222;SDS011;11780;13.904;100.620;2022-11-15T08:21:50;7.25;;;4.40;;
23222;SDS011;11780;13.904;100.620;2022-11-15T08:24:39;7.68;;;4.35;;
23222;SDS011;11780;13.904;100.620;2022-11-15T08:27:28;6.70;;;4.10;;
23222;SDS011;11780;13.904;100.620;2022-11-15T08:30:16;4.90;;;4.40;;
23222;SDS011;11780;13.904;100.620;2022-11-15T08:33:05;6.72;;;4.10;;
23222;SDS011;11780;13.904;100.620;2022-11-15T08:35:56;5.00;;;3.80;;
23222;SDS011;11780;13.904;100.620;2022-11-15T08:38:45;5.05;;;3.97;;
23222;SDS011;11780;13.904;100.620;2022-11-15T08:41:35;7.85;;;4.00;;
23222;SDS011;11780;13.904;100.620;2022-11-15T08:44:25;4.90;;;4.00;;
23222;SDS011;11780;13.904;100.620;2022-11-15T08:47:14;5.05;;;4.53;;
23222;SDS011;11780;13.904;100.620;2022-11-15T08:50:02;6.15;;;4.22;;
23222;SDS011;11780;13.904;100.620;2022-11-15T08:52:52;5.45;;;4.30;;
23222;SDS011;11780;13.904;100.620;2022-11-15T08:55:40;4.82;;;4.20;;
23222;SDS011;11780;13.904;100.620;2022-11-15T08:58:29;6.05;;;4.20;;
23222;SDS011;11780;13.904;100.620;2022-11-15T09:01:19;7.15;;;4.80;;
23222;SDS011;11780;13.904;100.620;2022-11-15T09:04:08;5.15;;;4.65;;
23222;SDS011;11780;13.904;100.620;2022-11-15T09:06:57;6.72;;;4.50;;
23222;SDS011;11780;13.904;100.620;2022-11-15T09:09:46;5.88;;;4.30;;
23222;SDS011;11780;13.904;100.620;2022-11-15T09:12:35;6.57;;;4.47;;
23222;SDS011;11780;13.904;100.620;2022-11-15T09:15:24;5.40;;;4.43;;
23222;SDS011;11780;13.904;100.620;2022-11-15T09:18:13;5.05;;;4.20;;
23222;SDS011;11780;13.904;100.620;2022-11-15T09:21:02;8.23;;;5.10;;
23222;SDS011;11780;13.904;100.620;2022-11-15T09:23:52;5.20;;;4.50;;
23222;SDS011;11780;13.904;100.620;2022-11-15T09:26:40;7.10;;;4.63;;
23222;SDS011;11780;13.904;100.620;2022-11-15T09:29:45;6.90;;;4.53;;
23222;SDS011;11780;13.904;100.620;2022-11-15T09:32:33;4.50;;;4.10;;
23222;SDS011;11780;13.904;100.620;2022-11-15T09:35:23;6.38;;;4.53;;
23222;SDS011;11780;13.904;100.620;2022-11-15T09:38:12;5.15;;;4.60;;
23222;SDS011;11780;13.904;100.620;2022-11-15T09:53:24;5.10;;;4.53;;
23222;SDS011;11780;13.904;100.620;2022-11-15T09:56:20;6.63;;;4.30;;
23222;SDS011;11780;13.904;100.620;2022-11-15T10:04:17;6.97;;;4.78;;
23222;SDS011;11780;13.904;100.620;2022-11-15T10:09:47;5.75;;;4.20;;
23222;SDS011;11780;13.904;100.620;2022-11-15T10:12:25;5.00;;;4.30;;
23222;SDS011;11780;13.904;100.620;2022-11-15T10:15:05;6.68;;;4.68;;
23222;SDS011;11780;13.904;100.620;2022-11-15T10:20:31;4.97;;;4.47;;
23222;SDS011;11780;13.904;100.620;2022-11-15T10:23:11;5.25;;;4.18;;
23222;SDS011;11780;13.904;100.620;2022-11-15T10:25:45;5.07;;;4.20;;
23222;SDS011;11780;13.904;100.620;2022-11-15T10:28:31;7.17;;;4.73;;
23222;SDS011;11780;13.904;100.620;2022-11-15T10:31:02;7.07;;;4.55;;
23222;SDS011;11780;13.904;100.620;2022-11-15T10:33:39;5.25;;;4.43;;
23222;SDS011;11780;13.904;100.620;2022-11-15T10:41:21;6.95;;;4.38;;
23222;SDS011;11780;13.904;100.620;2022-11-15T10:46:37;5.80;;;4.57;;
23222;SDS011;11780;13.904;100.620;2022-11-15T10:51:52;6.68;;;4.75;;
23222;SDS011;11780;13.904;100.620;2022-11-15T10:57:10;4.90;;;4.30;;
23222;SDS011;11780;13.904;100.620;2022-11-15T10:59:49;4.88;;;4.30;;
23222;SDS011;11780;13.904;100.620;2022-11-15T11:02:30;5.05;;;4.53;;
23222;SDS011;11780;13.904;100.620;2022-11-15T11:05:28;5.63;;;4.57;;
23222;SDS011;11780;13.904;100.620;2022-11-15T11:19:28;5.47;;;4.28;;
23222;SDS011;11780;13.904;100.620;2022-11-15T11:22:11;6.43;;;5.47;;
23222;SDS011;11780;13.904;100.620;2022-11-15T11:39:38;7.78;;;5.43;;
23222;SDS011;11780;13.904;100.620;2022-11-15T11:42:45;10.45;;;5.35;;
23222;SDS011;11780;13.904;100.620;2022-11-15T11:48:13;8.30;;;6.55;;
23222;SDS011;11780;13.904;100.620;2022-11-15T11:50:49;6.45;;;5.00;;
23222;SDS011;11780;13.904;100.620;2022-11-15T11:53:25;8.47;;;6.17;;
23222;SDS011;11780;13.904;100.620;2022-11-15T11:56:04;8.07;;;5.75;;
23222;SDS011;11780;13.904;100.620;2022-11-15T11:58:46;6.28;;;5.22;;
23222;SDS011;11780;13.904;100.620;2022-11-15T12:01:24;9.82;;;5.35;;
23222;SDS011;11780;13.904;100.620;2022-11-15T12:03:57;7.05;;;5.78;;
23222;SDS011;11780;13.904;100.620;2022-11-15T12:09:40;6.72;;;5.18;;
23222;SDS011;11780;13.904;100.620;2022-11-15T12:12:43;8.98;;;6.30;;
23222;SDS011;11780;13.904;100.620;2022-11-15T12:16:20;8.30;;;6.53;;
23222;SDS011;11780;13.904;100.620;2022-11-15T12:18:37;7.38;;;6.68;;
23222;SDS011;11780;13.904;100.620;2022-11-15T12:21:13;8.15;;;6.65;;
23222;SDS011;11780;13.904;100.620;2022-11-15T12:23:57;9.68;;;6.97;;
23222;SDS011;11780;13.904;100.620;2022-11-15T12:26:38;8.35;;;6.93;;
23222;SDS011;11780;13.904;100.620;2022-11-15T12:29:19;10.63;;;7.85;;
23222;SDS011;11780;13.904;100.620;2022-11-15T12:31:57;11.73;;;6.93;;
23222;SDS011;11780;13.904;100.620;2022-11-15T12:34:51;9.50;;;7.40;;
23222;SDS011;11780;13.904;100.620;2022-11-15T12:42:58;10.23;;;6.93;;
23222;SDS011;11780;13.904;100.620;2022-11-15T12:45:36;10.88;;;8.30;;
23222;SDS011;11780;13.904;100.620;2022-11-15T12:50:56;11.05;;;8.23;;
23222;SDS011;11780;13.904;100.620;2022-11-15T12:53:29;9.63;;;7.80;;
23222;SDS011;11780;13.904;100.620;2022-11-15T13:06:49;15.57;;;10.45;;
23222;SDS011;11780;13.904;100.620;2022-11-15T13:15:01;12.13;;;9.65;;
23222;SDS011;11780;13.904;100.620;2022-11-15T13:17:55;12.57;;;9.50;;
23222;SDS011;11780;13.904;100.620;2022-11-15T13:20:29;15.10;;;10.50;;
23222;SDS011;11780;13.904;100.620;2022-11-15T13:23:07;17.65;;;10.25;;
23222;SDS011;11780;13.904;100.620;2022-11-15T13:34:25;17.88;;;12.43;;
23222;SDS011;11780;13.904;100.620;2022-11-15T13:39:50;15.43;;;11.75;;
23222;SDS011;11780;13.904;100.620;2022-11-15T13:42:21;32.40;;;17.80;;
23222;SDS011;11780;13.904;100.620;2022-11-15T13:44:55;18.83;;;12.63;;
23222;SDS011;11780;13.904;100.620;2022-11-15T13:47:30;15.10;;;11.32;;
23222;SDS011;11780;13.904;100.620;2022-11-15T13:50:00;21.25;;;12.57;;
23222;SDS011;11780;13.904;100.620;2022-11-15T13:52:38;25.95;;;13.88;;
23222;SDS011;11780;13.904;100.620;2022-11-15T13:55:16;21.25;;;13.05;;
23222;SDS011;11780;13.904;100.620;2022-11-15T13:57:56;23.25;;;12.43;;
23222;SDS011;11780;13.904;100.620;2022-11-15T14:00:32;25.13;;;13.10;;
23222;SDS011;11780;13.904;100.620;2022-11-15T14:08:30;15.48;;;10.88;;
23222;SDS011;11780;13.904;100.620;2022-11-15T14:13:42;10.80;;;7.40;;
23222;SDS011;11780;13.904;100.620;2022-11-15T14:16:50;13.18;;;6.85;;
23222;SDS011;11780;13.904;100.620;2022-11-15T14:22:09;11.82;;;6.78;;
23222;SDS011;11780;13.904;100.620;2022-11-15T14:24:45;5.97;;;5.00;;
23222;SDS011;11780;13.904;100.620;2022-11-15T14:27:33;10.43;;;6.15;;
23222;SDS011;11780;13.904;100.620;2022-11-15T14:30:04;10.02;;;6.30;;
23222;SDS011;11780;13.904;100.620;2022-11-15T14:32:53;11.85;;;7.07;;
23222;SDS011;11780;13.904;100.620;2022-11-15T14:35:24;10.77;;;6.70;;
23222;SDS011;11780;13.904;100.620;2022-11-15T14:37:54;12.07;;;6.77;;
23222;SDS011;11780;13.904;100.620;2022-11-15T14:40:24;11.45;;;6.47;;
23222;SDS011;11780;13.904;100.620;2022-11-15T14:42:54;7.70;;;5.75;;
23222;SDS011;11780;13.904;100.620;2022-11-15T14:45:26;6.53;;;5.15;;
23222;SDS011;11780;13.904;100.620;2022-11-15T14:47:57;10.85;;;6.53;;
23222;SDS011;11780;13.904;100.620;2022-11-15T14:50:27;10.88;;;6.45;;
23222;SDS011;11780;13.904;100.620;2022-11-15T14:52:58;12.40;;;6.57;;
23222;SDS011;11780;13.904;100.620;2022-11-15T14:55:29;7.60;;;5.57;;
23222;SDS011;11780;13.904;100.620;2022-11-15T14:58:02;6.93;;;5.53;;
23222;SDS011;11780;13.904;100.620;2022-11-15T15:00:37;7.38;;;5.07;;
23222;SDS011;11780;13.904;100.620;2022-11-15T15:03:09;9.60;;;5.57;;
23222;SDS011;11780;13.904;100.620;2022-11-15T15:05:40;5.63;;;4.27;;
23222;SDS011;11780;13.904;100.620;2022-11-15T15:08:12;6.18;;;4.50;;
23222;SDS011;11780;13.904;100.620;2022-11-15T15:10:43;5.40;;;4.90;;
23222;SDS011;11780;13.904;100.620;2022-11-15T15:13:16;7.10;;;4.45;;
23222;SDS011;11780;13.904;100.620;2022-11-15T15:15:49;6.43;;;4.38;;
23222;SDS011;11780;13.904;100.620;2022-11-15T15:18:21;7.50;;;4.75;;
23222;SDS011;11780;13.904;100.620;2022-11-15T15:20:55;6.23;;;4.23;;
23222;SDS011;11780;13.904;100.620;2022-11-15T15:23:32;3.93;;;3.60;;
23222;SDS011;11780;13.904;100.620;2022-11-15T15:26:04;5.90;;;3.97;;
23222;SDS011;11780;13.904;100.620;2022-11-15T15:28:35;6.30;;;4.25;;
23222;SDS011;11780;13.904;100.620;2022-11-15T15:31:07;5.57;;;4.88;;
23222;SDS011;11780;13.904;100.620;2022-11-15T15:33:38;7.78;;;4.18;;
23222;SDS011;11780;13.904;100.620;2022-11-15T15:36:10;9.20;;;4.50;;
23222;SDS011;11780;13.904;100.620;2022-11-15T15:38:41;8.25;;;4.65;;
23222;SDS011;11780;13.904;100.620;2022-11-15T15:41:12;5.33;;;4.27;;
23222;SDS011;11780;13.904;100.620;2022-11-15T15:43:44;5.50;;;4.78;;
23222;SDS011;11780;13.904;100.620;2022-11-15T15:46:15;7.87;;;4.93;;
23222;SDS011;11780;13.904;100.620;2022-11-15T15:48:47;6.20;;;4.47;;
23222;SDS011;11780;13.904;100.620;2022-11-15T15:51:17;7.75;;;4.55;;
23222;SDS011;11780;13.904;100.620;2022-11-15T15:53:48;7.05;;;4.93;;
23222;SDS011;11780;13.904;100.620;2022-11-15T15:56:19;5.63;;;4.10;;
23222;SDS011;11780;13.904;100.620;2022-11-15T15:58:50;5.90;;;4.72;;
23222;SDS011;11780;13.904;100.620;2022-11-15T16:01:21;7.80;;;5.18;;
23222;SDS011;11780;13.904;100.620;2022-11-15T16:03:52;8.00;;;5.27;;
23222;SDS011;11780;13.904;100.620;2022-11-15T16:06:35;6.32;;;4.55;;
23222;SDS011;11780;13.904;100.620;2022-11-15T16:09:08;4.18;;;3.88;;
23222;SDS011;11780;13.904;100.620;2022-11-15T16:11:46;7.07;;;5.38;;
23222;SDS011;11780;13.904;100.620;2022-11-15T16:14:16;5.85;;;4.75;;
23222;SDS011;11780;13.904;100.620;2022-11-15T16:16:47;5.75;;;4.55;;
23222;SDS011;11780;13.904;100.620;2022-11-15T16:19:17;4.72;;;4.28;;
23222;SDS011;11780;13.904;100.620;2022-11-15T16:21:47;5.20;;;4.70;;
23222;SDS011;11780;13.904;100.620;2022-11-15T16:24:18;7.30;;;4.20;;
23222;SDS011;11780;13.904;100.620;2022-11-15T16:26:49;6.35;;;4.32;;
23222;SDS011;11780;13.904;100.620;2022-11-15T16:29:20;5.35;;;4.13;;
23222;SDS011;11780;13.904;100.620;2022-11-15T16:31:50;5.90;;;4.38;;
23222;SDS011;11780;13.904;100.620;2022-11-15T16:34:21;9.25;;;6.97;;
23222;SDS011;11780;13.904;100.620;2022-11-15T16:36:57;5.75;;;4.57;;
23222;SDS011;11780;13.904;100.620;2022-11-15T16:39:27;4.85;;;4.43;;
23222;SDS011;11780;13.904;100.620;2022-11-15T16:41:59;4.95;;;4.28;;
23222;SDS011;11780;13.904;100.620;2022-11-15T16:44:31;6.20;;;4.40;;
23222;SDS011;11780;13.904;100.620;2022-11-15T16:47:02;4.90;;;4.22;;
23222;SDS011;11780;13.904;100.620;2022-11-15T16:49:32;6.78;;;4.75;;
23222;SDS011;11780;13.904;100.620;2022-11-15T16:52:02;7.20;;;4.80;;
23222;SDS011;11780;13.904;100.620;2022-11-15T16:54:32;5.13;;;4.10;;
23222;SDS011;11780;13.904;100.620;2022-11-15T16:57:02;6.28;;;4.40;;
23222;SDS011;11780;13.904;100.620;2022-11-15T16:59:32;5.30;;;4.45;;
23222;SDS011;11780;13.904;100.620;2022-11-15T17:02:07;4.43;;;4.03;;
23222;SDS011;11780;13.904;100.620;2022-11-15T17:04:42;6.28;;;4.60;;
23222;SDS011;11780;13.904;100.620;2022-11-15T17:07:12;4.63;;;4.18;;
23222;SDS011;11780;13.904;100.620;2022-11-15T17:09:42;5.35;;;4.82;;
23222;SDS011;11780;13.904;100.620;2022-11-15T17:12:12;4.10;;;3.65;;
23222;SDS011;11780;13.904;100.620;2022-11-15T17:14:42;5.28;;;4.75;;
23222;SDS011;11780;13.904;100.620;2022-11-15T17:17:15;4.07;;;3.78;;
23222;SDS011;11780;13.904;100.620;2022-11-15T17:19:45;6.03;;;4.30;;
23222;SDS011;11780;13.904;100.620;2022-11-15T17:22:16;6.35;;;4.07;;
23222;SDS011;11780;13.904;100.620;2022-11-15T17:24:45;4.68;;;3.55;;
23222;SDS011;11780;13.904;100.620;2022-11-15T17:27:16;4.53;;;4.18;;
23222;SDS011;11780;13.904;100.620;2022-11-15T17:29:46;5.35;;;4.15;;
23222;SDS011;11780;13.904;100.620;2022-11-15T17:32:16;5.38;;;4.40;;
23222;SDS011;11780;13.904;100.620;2022-11-15T17:34:46;3.88;;;3.47;;
23222;SDS011;11780;13.904;100.620;2022-11-15T17:37:16;6.10;;;4.80;;
23222;SDS011;11780;13.904;100.620;2022-11-15T17:39:46;4.68;;;4.13;;
23222;SDS011;11780;13.904;100.620;2022-11-15T17:42:16;6.60;;;4.53;;
23222;SDS011;11780;13.904;100.620;2022-11-15T17:44:46;4.22;;;3.78;;
23222;SDS011;11780;13.904;100.620;2022-11-15T17:47:16;5.30;;;3.80;;
23222;SDS011;11780;13.904;100.620;2022-11-15T17:49:46;5.70;;;3.55;;
23222;SDS011;11780;13.904;100.620;2022-11-15T17:52:16;4.35;;;3.85;;
23222;SDS011;11780;13.904;100.620;2022-11-15T17:54:46;4.30;;;3.90;;
23222;SDS011;11780;13.904;100.620;2022-11-15T17:57:16;4.43;;;4.03;;
23222;SDS011;11780;13.904;100.620;2022-11-15T17:59:46;5.18;;;3.83;;
23222;SDS011;11780;13.904;100.620;2022-11-15T18:02:17;9.05;;;4.25;;
23222;SDS011;11780;13.904;100.620;2022-11-15T18:04:47;6.90;;;4.55;;
23222;SDS011;11780;13.904;100.620;2022-11-15T18:07:17;5.32;;;4.38;;
23222;SDS011;11780;13.904;100.620;2022-11-15T18:09:48;4.28;;;3.50;;
23222;SDS011;11780;13.904;100.620;2022-11-15T18:12:18;3.95;;;3.65;;
23222;SDS011;11780;13.904;100.620;2022-11-15T18:14:48;6.45;;;4.60;;
23222;SDS011;11780;13.904;100.620;2022-11-15T18:17:18;4.63;;;3.67;;
23222;SDS011;11780;13.904;100.620;2022-11-15T18:19:49;4.78;;;3.70;;
23222;SDS011;11780;13.904;100.620;2022-11-15T18:22:19;4.25;;;3.45;;